Time;durP1;ratioP1;P1;durP2;ratioP2;P2;SDS_P1;SDS_P2;PMS_P1;PMS_P2;Temp;Humidity;BMP_temperature;BMP_pressure;BME280_temperature;BME280_humidity;BME280_pressure;Samples;Min_cycle;Max_cycle;Signal;HPM_P1;HPM_P2
2022/09/29 00:01:32;;;;;;;85.10;5.85;;;6.30;99.90;;;;;;5044523;28;20095;-73
2022/09/29 00:03:58;;;;;;;17.40;4.03;;;6.30;99.90;;;;;;5044468;28;20048;-73
2022/09/29 00:06:23;;;;;;;19.65;4.10;;;6.30;99.90;;;;;;5028968;28;20053;-73
2022/09/29 00:08:49;;;;;;;57.60;5.38;;;6.40;99.90;;;;;;5045637;28;20128;-73
2022/09/29 00:11:17;;;;;;;136.35;7.38;;;6.40;99.90;;;;;;5044268;28;20076;-73
2022/09/29 00:13:44;;;;;;;37.00;5.25;;;6.40;99.90;;;;;;5025712;28;20044;-73
2022/09/29 00:16:10;;;;;;;41.75;6.45;;;6.20;99.90;;;;;;5045755;28;20053;-73
2022/09/29 00:18:36;;;;;;;5.68;5.03;;;6.20;99.90;;;;;;5044358;28;20045;-73
2022/09/29 00:21:11;;;;;;;8.95;7.65;;;6.30;99.90;;;;;;5045194;28;20052;-73
2022/09/29 00:23:37;;;;;;;7.60;6.43;;;6.40;99.90;;;;;;5044422;28;20045;-74
2022/09/29 00:26:12;;;;;;;7.70;6.25;;;6.50;99.90;;;;;;5041256;28;20490;-73
2022/09/29 00:28:39;;;;;;;10.55;6.80;;;6.60;99.90;;;;;;5044421;28;20045;-73
2022/09/29 00:31:07;;;;;;;6.80;6.20;;;6.60;99.90;;;;;;5028939;28;20067;-73
2022/09/29 00:33:35;;;;;;;7.28;6.57;;;6.60;99.90;;;;;;5043905;28;20045;-73
2022/09/29 00:36:05;;;;;;;7.90;6.90;;;6.60;99.90;;;;;;5043989;28;20041;-73
2022/09/29 00:38:31;;;;;;;7.00;5.80;;;6.60;99.90;;;;;;5046553;28;20083;-73
2022/09/29 00:40:57;;;;;;;5.60;5.03;;;6.60;99.90;;;;;;5044522;28;20060;-73
2022/09/29 00:43:44;;;;;;;13.65;6.30;;;6.50;99.90;;;;;;5045195;28;20056;-73
2022/09/29 00:46:13;;;;;;;6.63;5.10;;;6.40;99.90;;;;;;5043552;28;20054;-73
2022/09/29 00:48:39;;;;;;;4.65;3.80;;;6.30;99.90;;;;;;5040694;28;20049;-73
2022/09/29 00:51:06;;;;;;;6.65;4.15;;;6.20;99.90;;;;;;5042465;28;20048;-73
2022/09/29 00:53:33;;;;;;;5.22;4.55;;;6.20;99.90;;;;;;5044780;28;20097;-73
2022/09/29 00:56:06;;;;;;;6.00;4.55;;;6.00;99.90;;;;;;5044894;28;20064;-73
2022/09/29 00:58:35;;;;;;;5.22;4.30;;;6.00;99.90;;;;;;5040750;28;20402;-74
2022/09/29 01:01:01;;;;;;;5.82;5.32;;;5.90;99.90;;;;;;5043252;28;20064;-73
2022/09/29 01:03:32;;;;;;;5.60;5.10;;;6.10;99.90;;;;;;5044396;28;20042;-73
2022/09/29 01:06:11;;;;;;;147.02;8.32;;;6.10;99.90;;;;;;5044279;28;20076;-73
2022/09/29 01:08:50;;;;;;;47.35;5.63;;;6.10;99.90;;;;;;5028103;28;20075;-73
2022/09/29 01:11:19;;;;;;;5.80;5.07;;;6.00;99.90;;;;;;5044724;28;20068;-73
2022/09/29 01:13:46;;;;;;;8.50;7.45;;;6.00;99.90;;;;;;5042934;28;20060;-73
2022/09/29 01:16:11;;;;;;;8.25;6.85;;;6.10;99.90;;;;;;5043263;28;20049;-74
2022/09/29 01:18:38;;;;;;;10.02;7.90;;;6.10;99.90;;;;;;5043382;28;20067;-73
2022/09/29 01:21:37;;;;;;;11.35;6.30;;;6.20;99.90;;;;;;5026849;28;20502;-73
2022/09/29 01:24:41;;;;;;;6.43;5.82;;;6.30;99.90;;;;;;5043709;28;20073;-73
2022/09/29 01:27:13;;;;;;;5.63;4.40;;;6.30;99.90;;;;;;5040538;28;20049;-73
2022/09/29 01:30:03;;;;;;;5.38;4.88;;;6.00;99.90;;;;;;5043919;28;20213;-73
2022/09/29 01:33:06;;;;;;;6.05;5.28;;;5.90;99.90;;;;;;5027093;28;20041;-73
2022/09/29 01:35:52;;;;;;;4.40;3.95;;;5.70;99.90;;;;;;5040234;28;20061;-73
2022/09/29 01:38:44;;;;;;;9.00;5.85;;;5.50;99.90;;;;;;5042957;28;20050;-73
2022/09/29 01:41:35;;;;;;;11.23;6.90;;;5.40;99.90;;;;;;5039964;28;20045;-73
2022/09/29 01:44:33;;;;;;;6.93;5.65;;;5.50;99.90;;;;;;5042953;28;20049;-73
2022/09/29 01:47:24;;;;;;;6.25;5.32;;;5.50;99.90;;;;;;5044122;28;20038;-73
2022/09/29 01:49:59;;;;;;;5.07;4.30;;;5.30;99.90;;;;;;5038681;28;20111;-73
2022/09/29 01:52:29;;;;;;;4.93;4.43;;;5.40;99.90;;;;;;5042630;28;20080;-73
2022/09/29 01:55:09;;;;;;;58.38;8.18;;;5.40;99.90;;;;;;5043937;28;20037;-73
2022/09/29 01:57:47;;;;;;;25.20;7.13;;;5.50;99.90;;;;;;5043984;28;20075;-73
2022/09/29 02:00:16;;;;;;;11.77;4.90;;;5.60;99.90;;;;;;5043210;28;20049;-73
2022/09/29 02:02:42;;;;;;;103.20;7.90;;;5.60;99.90;;;;;;5043731;28;20053;-73
2022/09/29 02:05:14;;;;;;;69.50;6.32;;;5.60;99.90;;;;;;5043477;28;20053;-73
2022/09/29 02:07:44;;;;;;;13.73;4.15;;;5.70;99.90;;;;;;5043002;28;20090;-73
2022/09/29 02:10:16;;;;;;;4.32;3.60;;;5.60;99.90;;;;;;5042819;28;20061;-73
2022/09/29 02:12:44;;;;;;;3.83;3.45;;;5.50;99.90;;;;;;5042594;28;20413;-73
2022/09/29 02:15:16;;;;;;;3.72;3.08;;;5.50;99.90;;;;;;5042553;28;20054;-73
2022/09/29 02:17:45;;;;;;;14.45;5.03;;;5.50;99.90;;;;;;5042709;28;20079;-73
2022/09/29 02:20:11;;;;;;;11.73;5.15;;;5.50;99.90;;;;;;5041822;28;20112;-73
2022/09/29 02:22:39;;;;;;;36.90;5.45;;;5.60;99.90;;;;;;5047152;28;20053;-73
2022/09/29 02:25:09;;;;;;;25.90;5.72;;;5.60;99.90;;;;;;5038892;28;20042;-73
2022/09/29 02:27:35;;;;;;;7.75;6.43;;;5.50;99.90;;;;;;5042522;28;20049;-73
2022/09/29 02:30:01;;;;;;;8.27;7.38;;;5.60;99.90;;;;;;5026147;28;20045;-73
2022/09/29 02:32:28;;;;;;;12.70;10.10;;;5.60;99.90;;;;;;5042741;28;20085;-73
2022/09/29 02:34:55;;;;;;;7.95;6.90;;;5.80;99.90;;;;;;5043026;28;20049;-73
2022/09/29 02:37:42;;;;;;;8.05;6.25;;;5.70;99.90;;;;;;5042229;28;20552;-73
2022/09/29 02:40:26;;;;;;;8.38;6.78;;;5.60;99.90;;;;;;5042850;28;20037;-73
2022/09/29 02:43:07;;;;;;;7.60;5.78;;;5.70;99.90;;;;;;5043239;28;20052;-73
2022/09/29 02:45:55;;;;;;;6.57;5.93;;;5.60;99.90;;;;;;5043018;28;20052;-73
2022/09/29 02:48:32;;;;;;;7.57;5.18;;;5.60;99.90;;;;;;5041541;28;20049;-73
2022/09/29 02:51:30;;;;;;;16.52;6.95;;;5.40;99.90;;;;;;5040406;28;20053;-73
2022/09/29 02:54:08;;;;;;;8.55;6.05;;;5.40;99.90;;;;;;4982054;28;20058;-73
2022/09/29 02:56:36;;;;;;;38.63;7.75;;;5.40;99.90;;;;;;4998756;28;20053;-73
2022/09/29 02:59:09;;;;;;;11.25;7.07;;;5.30;99.90;;;;;;4985887;28;20114;-73
2022/09/29 03:01:55;;;;;;;20.33;6.07;;;5.30;99.90;;;;;;4985169;28;20089;-73
2022/09/29 03:04:25;;;;;;;6.93;4.35;;;5.40;99.90;;;;;;4987390;28;20158;-73
2022/09/29 03:06:51;;;;;;;12.73;3.70;;;5.20;99.90;;;;;;4986726;28;20050;-73
2022/09/29 03:09:17;;;;;;;23.88;4.07;;;5.20;99.90;;;;;;4986575;28;20043;-73
2022/09/29 03:11:43;;;;;;;6.03;3.35;;;5.10;99.90;;;;;;4985076;28;20061;-73
2022/09/29 03:14:09;;;;;;;4.35;3.47;;;5.00;99.90;;;;;;4983776;28;20050;-73
2022/09/29 03:16:36;;;;;;;16.55;4.75;;;5.00;99.90;;;;;;4988869;28;20053;-73
2022/09/29 03:19:04;;;;;;;13.13;4.57;;;4.90;99.90;;;;;;4988806;28;20046;-73
2022/09/29 03:21:30;;;;;;;13.20;3.58;;;4.90;99.90;;;;;;4988216;28;20062;-73
2022/09/29 03:23:56;;;;;;;15.30;3.25;;;4.80;99.90;;;;;;4988428;28;20084;-73
2022/09/29 03:26:22;;;;;;;3.60;2.83;;;4.70;99.90;;;;;;4986482;28;20489;-73
2022/09/29 03:28:49;;;;;;;13.40;3.40;;;4.60;99.90;;;;;;4989606;28;20050;-73
2022/09/29 03:31:15;;;;;;;11.93;3.92;;;4.60;99.90;;;;;;5030026;28;20053;-73
2022/09/29 03:33:41;;;;;;;19.27;4.15;;;4.40;99.90;;;;;;5045901;28;20053;-73
2022/09/29 03:36:07;;;;;;;75.57;6.45;;;4.40;99.90;;;;;;5047601;28;20049;-73
2022/09/29 03:38:34;;;;;;;89.47;7.30;;;4.30;99.90;;;;;;5046375;28;20052;-73
2022/09/29 03:40:59;;;;;;;33.20;6.03;;;4.30;99.90;;;;;;5045669;28;20205;-73
2022/09/29 03:43:25;;;;;;;16.48;4.10;;;4.40;99.90;;;;;;5044908;28;20106;-73
2022/09/29 03:45:53;;;;;;;19.15;5.90;;;4.40;99.90;;;;;;5044822;28;20041;-73
2022/09/29 03:48:21;;;;;;;15.88;6.25;;;4.50;99.90;;;;;;5044738;28;20056;-73
2022/09/29 03:50:49;;;;;;;33.05;6.65;;;4.50;99.90;;;;;;5045408;28;20112;-73
2022/09/29 03:53:15;;;;;;;31.52;6.68;;;4.60;99.90;;;;;;5045551;28;20041;-73
2022/09/29 03:55:46;;;;;;;18.48;5.43;;;4.70;99.90;;;;;;5045554;28;20076;-73
2022/09/29 03:58:11;;;;;;;;;;;4.80;99.90;;;;;;5045056;28;20104;-73
2022/09/29 04:00:37;;;;;;;30.52;7.55;;;4.80;99.90;;;;;;5044942;28;20003;-73
2022/09/29 04:03:03;;;;;;;29.67;7.28;;;4.90;99.90;;;;;;5044942;28;20053;-73
2022/09/29 04:05:29;;;;;;;94.95;11.30;;;5.10;99.90;;;;;;5045793;28;20046;-73
2022/09/29 04:07:55;;;;;;;68.68;9.15;;;5.10;99.90;;;;;;5045821;28;20053;-73
2022/09/29 04:10:21;;;;;;;112.20;11.68;;;5.10;99.90;;;;;;5045295;28;20053;-73
2022/09/29 04:12:46;;;;;;;85.80;11.90;;;5.10;99.90;;;;;;5045167;28;20049;-73
2022/09/29 04:15:12;;;;;;;49.25;9.60;;;5.10;99.90;;;;;;5045706;28;20034;-73
2022/09/29 04:17:38;;;;;;;32.65;8.98;;;5.10;99.90;;;;;;5045332;28;20052;-73
2022/09/29 04:20:04;;;;;;;17.67;7.80;;;5.00;99.90;;;;;;5043110;28;20045;-73
2022/09/29 04:22:29;;;;;;;38.00;8.40;;;5.00;99.90;;;;;;5044530;28;20118;-73
2022/09/29 04:24:55;;;;;;;17.70;7.30;;;5.20;99.90;;;;;;5042042;28;20042;-73
2022/09/29 04:27:21;;;;;;;80.97;9.05;;;5.10;99.90;;;;;;5045221;28;20425;-73
2022/09/29 04:29:47;;;;;;;48.03;10.13;;;5.00;99.90;;;;;;5045207;28;20041;-73
2022/09/29 04:32:12;;;;;;;40.80;10.82;;;5.10;99.90;;;;;;5045303;28;20072;-73
2022/09/29 04:34:38;;;;;;;55.65;12.15;;;5.10;99.90;;;;;;4998816;28;20067;-72
2022/09/29 04:37:06;;;;;;;31.33;9.88;;;5.00;99.90;;;;;;5045266;28;20045;-72
2022/09/29 04:39:31;;;;;;;20.95;7.90;;;5.10;99.90;;;;;;5039369;28;20060;-74
2022/09/29 04:41:57;;;;;;;34.95;7.95;;;5.10;99.90;;;;;;4998442;28;20041;-74
2022/09/29 04:44:23;;;;;;;28.48;9.07;;;5.00;99.90;;;;;;5018403;28;20042;-73
2022/09/29 04:46:50;;;;;;;8.80;7.90;;;5.00;99.90;;;;;;5024866;28;20592;-70
2022/09/29 04:49:17;;;;;;;9.48;8.45;;;4.90;99.90;;;;;;5014324;28;20041;-71
2022/09/29 04:51:42;;;;;;;20.45;9.88;;;4.90;99.90;;;;;;5019212;28;20057;-70
2022/09/29 04:54:08;;;;;;;14.98;7.78;;;5.00;99.90;;;;;;5030451;28;20542;-70
2022/09/29 04:56:34;;;;;;;12.10;8.48;;;4.90;99.90;;;;;;5003774;28;20049;-72
2022/09/29 04:59:00;;;;;;;22.17;9.23;;;4.80;99.90;;;;;;5025738;28;20046;-72
2022/09/29 05:01:25;;;;;;;13.95;8.60;;;4.70;99.90;;;;;;5006818;28;20121;-71
2022/09/29 05:03:51;;;;;;;21.92;9.35;;;4.80;99.90;;;;;;5019638;28;20071;-70
2022/09/29 05:06:17;;;;;;;20.48;8.90;;;4.70;99.90;;;;;;5032495;28;20049;-70
2022/09/29 05:08:43;;;;;;;18.90;9.02;;;4.80;99.90;;;;;;5028369;28;20044;-70
2022/09/29 05:11:10;;;;;;;17.95;9.00;;;4.70;99.90;;;;;;5007367;28;20045;-70
2022/09/29 05:13:36;;;;;;;34.05;9.43;;;4.70;99.90;;;;;;5023901;28;20072;-80
2022/09/29 05:16:03;;;;;;;20.05;8.93;;;4.70;99.90;;;;;;5018666;28;20307;-81
2022/09/29 05:18:29;;;;;;;22.23;8.90;;;4.70;99.90;;;;;;5016310;28;20532;-80
2022/09/29 05:20:55;;;;;;;18.00;8.55;;;4.70;99.90;;;;;;5012274;28;20048;-81
2022/09/29 05:23:21;;;;;;;33.47;9.27;;;4.70;99.90;;;;;;5025210;28;20045;-78
2022/09/29 05:25:47;;;;;;;35.08;9.20;;;4.60;99.90;;;;;;4999352;28;20442;-77
2022/09/29 05:28:14;;;;;;;15.43;8.82;;;4.60;99.90;;;;;;5032795;28;20290;-72
2022/09/29 05:30:41;;;;;;;28.13;9.27;;;4.60;99.90;;;;;;5017468;28;20049;-72
2022/09/29 05:33:07;;;;;;;11.40;8.10;;;4.60;99.90;;;;;;5024954;28;20146;-72
2022/09/29 05:35:33;;;;;;;14.93;9.27;;;4.60;99.90;;;;;;5025105;28;20079;-73
2022/09/29 05:37:58;;;;;;;10.55;9.50;;;4.70;99.90;;;;;;5018836;28;20053;-73
2022/09/29 05:40:24;;;;;;;40.60;10.63;;;4.60;99.90;;;;;;5032573;28;20045;-72
2022/09/29 05:42:51;;;;;;;53.95;10.55;;;4.70;99.90;;;;;;5032376;28;20041;-72
2022/09/29 05:45:17;;;;;;;35.10;10.23;;;4.60;99.90;;;;;;5046366;28;20045;-72
2022/09/29 05:47:43;;;;;;;43.20;10.10;;;4.60;99.90;;;;;;5018296;28;20050;-73
2022/09/29 05:50:10;;;;;;;47.15;10.25;;;4.70;99.90;;;;;;5027804;28;20329;-73
2022/09/29 05:52:36;;;;;;;68.53;10.27;;;4.60;99.90;;;;;;5026377;28;20564;-73
2022/09/29 05:55:03;;;;;;;20.17;8.88;;;4.60;99.90;;;;;;5017636;28;20592;-73
2022/09/29 05:57:29;;;;;;;8.38;7.65;;;4.60;99.90;;;;;;5026301;28;20650;-73
2022/09/29 05:59:54;;;;;;;8.00;7.30;;;4.60;99.90;;;;;;5009703;28;20045;-73
2022/09/29 06:02:21;;;;;;;8.45;7.65;;;4.50;99.90;;;;;;5027794;28;20045;-73
2022/09/29 06:04:46;;;;;;;9.73;8.82;;;4.60;99.90;;;;;;5034294;28;20268;-72
2022/09/29 06:07:12;;;;;;;8.20;6.97;;;4.70;99.90;;;;;;5027308;28;20140;-73
2022/09/29 06:09:38;;;;;;;7.53;6.82;;;4.70;99.90;;;;;;5017528;28;20264;-71
2022/09/29 06:12:05;;;;;;;8.00;7.22;;;4.70;99.90;;;;;;5026333;28;20096;-71
2022/09/29 06:14:30;;;;;;;8.27;7.53;;;4.70;99.90;;;;;;5034103;28;20049;-71
2022/09/29 06:16:56;;;;;;;10.25;9.25;;;4.60;99.90;;;;;;5024247;28;20061;-71
2022/09/29 06:19:21;;;;;;;13.65;12.20;;;4.70;99.90;;;;;;5033800;28;20057;-71
2022/09/29 06:21:47;;;;;;;13.63;12.23;;;4.80;99.90;;;;;;5010628;28;20052;-71
2022/09/29 06:24:13;;;;;;;13.73;12.32;;;5.00;99.90;;;;;;5029400;28;20038;-70
2022/09/29 06:26:38;;;;;;;14.52;13.00;;;5.00;99.90;;;;;;5022696;28;20053;-71
2022/09/29 06:29:04;;;;;;;18.08;14.90;;;5.20;99.90;;;;;;5032589;28;20455;-71
2022/09/29 06:31:30;;;;;;;18.27;15.25;;;5.30;99.90;;;;;;5026805;28;20059;-71
2022/09/29 06:33:58;;;;;;;19.38;15.55;;;5.40;99.90;;;;;;5016700;28;20067;-71
2022/09/29 06:39:19;;;;;;;23.88;16.85;;;5.50;99.90;;;;;;5031919;28;20079;-71
2022/09/29 06:41:50;;;;;;;32.35;17.85;;;5.60;99.90;;;;;;5011850;28;20676;-71
2022/09/29 06:44:17;;;;;;;19.33;16.60;;;5.70;99.90;;;;;;5031549;28;20208;-71
2022/09/29 06:46:42;;;;;;;23.92;18.38;;;5.80;99.90;;;;;;5029146;28;20075;-71
2022/09/29 06:49:11;;;;;;;21.27;17.15;;;5.80;99.90;;;;;;5044605;28;20045;-71
2022/09/29 06:51:37;;;;;;;19.23;16.45;;;6.00;99.90;;;;;;5032400;28;20057;-71
2022/09/29 06:54:03;;;;;;;22.23;14.43;;;6.00;99.90;;;;;;5034663;28;20124;-71
2022/09/29 06:56:29;;;;;;;19.05;16.23;;;6.00;99.90;;;;;;5032098;28;20088;-71
2022/09/29 06:58:55;;;;;;;20.98;16.35;;;6.10;99.90;;;;;;5039720;28;20042;-71
2022/09/29 07:01:20;;;;;;;29.05;18.20;;;6.10;99.90;;;;;;5029787;28;20045;-72
2022/09/29 07:03:47;;;;;;;27.08;19.80;;;6.10;99.90;;;;;;5037375;28;20049;-71
2022/09/29 07:06:13;;;;;;;21.90;17.95;;;6.30;99.90;;;;;;5028149;28;20054;-71
2022/09/29 07:08:39;;;;;;;29.65;22.30;;;6.40;99.90;;;;;;5033926;28;20042;-71
2022/09/29 07:11:08;;;;;;;28.48;21.25;;;6.40;99.90;;;;;;5039721;28;20050;-71
2022/09/29 07:13:35;;;;;;;26.35;20.05;;;6.50;99.90;;;;;;4996417;28;20038;-71
2022/09/29 07:16:05;;;;;;;25.83;20.27;;;6.50;99.90;;;;;;5038764;28;20153;-71
2022/09/29 07:18:39;;;;;;;30.25;21.50;;;6.60;99.90;;;;;;5025523;28;20049;-71
2022/09/29 07:21:06;;;;;;;29.13;21.10;;;6.70;99.90;;;;;;5034459;28;20051;-71
2022/09/29 07:23:32;;;;;;;26.33;20.85;;;6.80;99.90;;;;;;5013584;28;20369;-71
2022/09/29 07:25:58;;;;;;;30.65;22.20;;;6.70;99.90;;;;;;5038511;28;20072;-71
2022/09/29 07:28:25;;;;;;;27.63;21.23;;;6.80;99.90;;;;;;5029469;28;20057;-71
2022/09/29 07:31:05;;;;;;;29.50;20.90;;;6.80;99.90;;;;;;5039488;28;20041;-71
2022/09/29 07:33:31;;;;;;;29.25;22.63;;;6.70;99.90;;;;;;5028380;28;20063;-71
2022/09/29 07:36:00;;;;;;;29.45;22.00;;;6.80;99.90;;;;;;5024715;28;20049;-71
2022/09/29 07:38:27;;;;;;;28.67;21.58;;;6.80;99.90;;;;;;5028996;28;20056;-71
2022/09/29 07:40:53;;;;;;;29.05;21.55;;;6.80;99.90;;;;;;5039396;28;20037;-70
2022/09/29 07:43:19;;;;;;;30.38;21.23;;;6.90;99.90;;;;;;5032212;28;20571;-71
2022/09/29 07:45:49;;;;;;;30.77;22.38;;;6.90;99.90;;;;;;5039975;28;20150;-71
2022/09/29 07:48:14;;;;;;;31.90;23.63;;;6.80;99.90;;;;;;5036816;28;20087;-70
2022/09/29 07:50:41;;;;;;;36.22;23.83;;;7.00;99.90;;;;;;5040503;28;20556;-71
2022/09/29 07:53:07;;;;;;;31.77;23.75;;;7.00;99.90;;;;;;5032100;28;20345;-71
2022/09/29 07:55:32;;;;;;;35.80;25.23;;;7.00;99.90;;;;;;5030459;28;20052;-70
2022/09/29 07:57:58;;;;;;;34.08;23.85;;;7.00;99.90;;;;;;5029528;28;20053;-69
2022/09/29 08:00:24;;;;;;;29.90;22.30;;;7.20;99.90;;;;;;5024751;28;20266;-71
2022/09/29 08:02:49;;;;;;;35.55;25.77;;;7.30;99.90;;;;;;5031824;28;20115;-71
2022/09/29 08:05:16;;;;;;;33.42;24.00;;;7.30;99.90;;;;;;5037688;28;20072;-71
2022/09/29 08:07:42;;;;;;;31.33;22.77;;;7.30;99.90;;;;;;5032542;28;20071;-71
2022/09/29 08:10:08;;;;;;;34.65;24.95;;;7.40;99.90;;;;;;5030799;28;20046;-70
2022/09/29 08:12:34;;;;;;;40.00;25.15;;;7.50;99.90;;;;;;5032251;28;20607;-70
2022/09/29 08:15:00;;;;;;;36.70;25.73;;;7.50;99.90;;;;;;5034207;28;20069;-71
2022/09/29 08:17:25;;;;;;;30.42;22.30;;;7.70;99.90;;;;;;5036445;28;20083;-71
2022/09/29 08:19:51;;;;;;;36.15;25.95;;;7.70;99.90;;;;;;5015273;28;20056;-71
2022/09/29 08:22:17;;;;;;;34.72;25.67;;;7.80;99.90;;;;;;5029702;28;20084;-70
2022/09/29 08:24:43;;;;;;;33.60;25.25;;;7.90;99.90;;;;;;5025641;28;20057;-71
2022/09/29 08:27:08;;;;;;;34.95;26.75;;;8.10;99.90;;;;;;5026631;28;20045;-70
2022/09/29 08:29:34;;;;;;;33.17;25.02;;;8.10;99.90;;;;;;5045781;28;20048;-71
2022/09/29 08:32:00;;;;;;;30.27;23.40;;;8.20;99.90;;;;;;5031707;28;20119;-71
2022/09/29 08:34:26;;;;;;;32.33;25.17;;;8.20;99.90;;;;;;5033456;28;20054;-71
2022/09/29 08:36:52;;;;;;;37.28;24.63;;;8.40;99.90;;;;;;5028988;28;20098;-70
2022/09/29 08:39:19;;;;;;;27.67;22.50;;;8.40;99.90;;;;;;5019019;28;20105;-70
2022/09/29 08:42:01;;;;;;;32.42;23.27;;;8.50;99.90;;;;;;5027468;28;20061;-71
2022/09/29 08:45:07;;;;;;;29.15;20.65;;;8.60;99.90;;;;;;5035341;28;20050;-70
2022/09/29 08:47:41;;;;;;;24.73;19.42;;;8.90;99.90;;;;;;5021293;28;20525;-71
2022/09/29 08:50:19;;;;;;;23.92;18.38;;;8.90;99.90;;;;;;5038566;28;20046;-71
2022/09/29 08:52:52;;;;;;;23.92;18.27;;;9.10;99.90;;;;;;5028832;28;20072;-70
2022/09/29 08:55:18;;;;;;;21.95;17.67;;;9.20;99.90;;;;;;5039201;28;20060;-70
2022/09/29 08:57:46;;;;;;;22.48;18.40;;;9.30;99.90;;;;;;5002880;28;20053;-70
2022/09/29 09:00:14;;;;;;;24.65;19.98;;;9.40;99.90;;;;;;5040049;28;20059;-70
2022/09/29 09:03:07;;;;;;;20.63;15.82;;;9.40;99.90;;;;;;5012587;28;20122;-71
2022/09/29 09:06:01;;;;;;;20.38;16.17;;;9.70;99.90;;;;;;5030145;28;20061;-71
2022/09/29 09:08:59;;;;;;;18.13;15.52;;;9.70;99.90;;;;;;5039554;28;20206;-71
2022/09/29 09:11:43;;;;;;;20.85;17.10;;;9.90;99.90;;;;;;5049626;28;20068;-69
2022/09/29 09:14:24;;;;;;;16.38;14.30;;;9.90;99.90;;;;;;5009864;28;20548;-69
2022/09/29 09:16:59;;;;;;;14.52;12.90;;;10.00;99.90;;;;;;5026044;28;20068;-70
2022/09/29 09:19:46;;;;;;;18.63;15.35;;;10.20;99.90;;;;;;5031252;28;20405;-69
2022/09/29 09:22:21;;;;;;;21.67;17.73;;;10.30;99.90;;;;;;5029855;28;20103;-69
2022/09/29 09:25:00;;;;;;;18.02;15.70;;;10.50;99.90;;;;;;5034928;28;20048;-70
2022/09/29 09:27:36;;;;;;;17.55;15.13;;;10.50;99.90;;;;;;5029771;28;20045;-69
2022/09/29 09:30:29;;;;;;;17.55;14.85;;;10.50;99.90;;;;;;5035201;28;20080;-71
2022/09/29 09:33:01;;;;;;;17.67;15.60;;;10.60;99.90;;;;;;5027816;28;20057;-69
2022/09/29 09:35:47;;;;;;;17.25;15.48;;;10.70;99.90;;;;;;5026532;28;20056;-69
2022/09/29 09:38:40;;;;;;;18.73;15.00;;;10.70;99.90;;;;;;5012603;28;20108;-69
2022/09/29 09:41:08;;;;;;;16.73;14.60;;;10.70;99.90;;;;;;5047655;28;20057;-69
2022/09/29 09:43:40;;;;;;;16.55;14.73;;;10.80;99.90;;;;;;5012137;28;20056;-69
2022/09/29 09:46:34;;;;;;;15.52;13.88;;;10.90;99.90;;;;;;5034772;28;20037;-69
2022/09/29 09:49:32;;;;;;;16.40;14.60;;;10.90;99.90;;;;;;5009002;28;20064;-69
2022/09/29 09:52:08;;;;;;;15.38;13.77;;;11.00;99.90;;;;;;5026963;28;20045;-69
2022/09/29 09:54:41;;;;;;;20.40;16.30;;;11.10;99.90;;;;;;5034543;28;20050;-69
2022/09/29 09:57:35;;;;;;;16.40;14.70;;;11.20;99.90;;;;;;5029661;28;20099;-68
2022/09/29 10:00:17;;;;;;;19.50;15.35;;;11.20;99.90;;;;;;5026168;28;20053;-69
2022/09/29 10:02:49;;;;;;;15.00;13.40;;;11.30;99.90;;;;;;5029435;28;20057;-69
2022/09/29 10:05:25;;;;;;;15.25;12.60;;;11.40;99.90;;;;;;5035252;28;20113;-69
2022/09/29 10:07:52;;;;;;;15.63;13.95;;;11.40;99.90;;;;;;5011798;28;20048;-69
2022/09/29 10:10:27;;;;;;;11.70;10.50;;;11.60;99.90;;;;;;5034899;28;20151;-69
2022/09/29 10:13:04;;;;;;;13.73;11.95;;;11.60;99.90;;;;;;5023271;28;20059;-69
2022/09/29 10:15:51;;;;;;;12.82;10.90;;;11.70;99.90;;;;;;5034632;28;20060;-69
2022/09/29 10:18:42;;;;;;;9.95;8.93;;;11.80;99.90;;;;;;5034631;28;20058;-68
2022/09/29 10:21:38;;;;;;;12.20;9.55;;;11.90;99.90;;;;;;5023101;28;20049;-68
2022/09/29 10:24:19;;;;;;;6.32;5.70;;;12.00;99.90;;;;;;4975791;28;20050;-68
2022/09/29 10:26:47;;;;;;;7.13;5.35;;;12.10;99.90;;;;;;4971456;28;20047;-68
2022/09/29 10:29:33;;;;;;;8.52;6.57;;;12.20;99.90;;;;;;4960979;28;20058;-68
2022/09/29 10:32:00;;;;;;;7.25;6.40;;;12.20;99.90;;;;;;4963318;28;20505;-68
2022/09/29 10:34:28;;;;;;;9.27;6.78;;;12.30;99.90;;;;;;4969811;28;20054;-67
2022/09/29 10:36:58;;;;;;;7.85;7.05;;;12.40;99.90;;;;;;4966497;28;20118;-72
2022/09/29 10:39:44;;;;;;;6.40;5.50;;;12.40;99.90;;;;;;4991271;28;20053;-68
2022/09/29 10:42:25;;;;;;;7.13;6.38;;;12.50;99.90;;;;;;4963354;28;20113;-67
2022/09/29 10:45:01;;;;;;;9.40;7.32;;;12.40;99.90;;;;;;4970467;28;20378;-69
2022/09/29 10:47:27;;;;;;;10.18;6.93;;;12.50;99.90;;;;;;4966705;28;20125;-68
2022/09/29 10:50:07;;;;;;;7.30;6.15;;;12.60;99.90;;;;;;4968387;28;20054;-69
2022/09/29 10:52:33;;;;;;;7.43;6.40;;;12.60;99.90;;;;;;4966579;28;20538;-67
2022/09/29 10:55:02;;;;;;;8.30;7.30;;;12.60;99.90;;;;;;4972976;28;20057;-68
2022/09/29 10:57:32;;;;;;;7.63;5.50;;;12.80;99.90;;;;;;4967853;28;20074;-68
2022/09/29 10:59:59;;;;;;;7.80;4.40;;;12.90;99.90;;;;;;4986239;28;20296;-68
2022/09/29 11:02:34;;;;;;;4.97;4.32;;;12.90;99.90;;;;;;5013648;28;20072;-68
2022/09/29 11:05:04;;;;;;;4.97;4.13;;;12.90;99.90;;;;;;5033227;28;20052;-68
2022/09/29 11:07:33;;;;;;;6.93;3.63;;;13.10;99.90;;;;;;5026590;28;20060;-68
2022/09/29 11:09:58;;;;;;;6.78;4.30;;;13.10;99.90;;;;;;5033639;28;20087;-70
2022/09/29 11:12:37;;;;;;;4.70;4.30;;;13.20;99.90;;;;;;5027797;28;20063;-68
2022/09/29 11:15:27;;;;;;;5.88;5.32;;;13.20;99.90;;;;;;5028776;28;20042;-68
2022/09/29 11:17:53;;;;;;;5.85;4.80;;;13.20;99.90;;;;;;5027880;28;20579;-68
2022/09/29 11:20:24;;;;;;;6.38;4.68;;;13.40;99.90;;;;;;5035133;28;20049;-68
2022/09/29 11:23:18;;;;;;;4.43;4.03;;;13.40;99.90;;;;;;5030847;28;20424;-68
2022/09/29 11:26:09;;;;;;;6.00;4.18;;;13.50;99.90;;;;;;5032198;28;20045;-68
2022/09/29 11:29:14;;;;;;;5.40;4.18;;;13.50;99.90;;;;;;5028386;28;20060;-68
2022/09/29 11:31:50;;;;;;;6.18;4.97;;;13.70;99.90;;;;;;5032503;28;20050;-68
2022/09/29 11:34:46;;;;;;;6.53;4.90;;;13.90;99.90;;;;;;5015649;28;20119;-68
2022/09/29 11:37:31;;;;;;;6.25;4.85;;;14.10;99.90;;;;;;5028053;28;20045;-69
2022/09/29 11:40:26;;;;;;;4.95;4.45;;;14.20;99.90;;;;;;5022880;28;20459;-68
2022/09/29 11:43:00;;;;;;;6.10;5.10;;;14.50;99.90;;;;;;5027373;28;20057;-69
2022/09/29 11:45:56;;;;;;;6.10;4.82;;;14.60;99.90;;;;;;5028714;28;20099;-68
2022/09/29 11:48:53;;;;;;;6.22;4.75;;;14.70;99.90;;;;;;5024916;28;20049;-69
2022/09/29 11:51:36;;;;;;;6.47;5.88;;;14.80;99.90;;;;;;5034555;28;20062;-68
2022/09/29 11:54:29;;;;;;;7.05;5.15;;;14.90;99.90;;;;;;5022267;28;20049;-68
2022/09/29 11:57:06;;;;;;;5.32;3.90;;;15.10;99.90;;;;;;5034710;28;20049;-68
2022/09/29 11:59:41;;;;;;;14.63;4.35;;;15.20;99.90;;;;;;4999793;28;20048;-68
2022/09/29 12:02:37;;;;;;;6.65;4.15;;;15.30;99.90;;;;;;5027202;28;20065;-68
2022/09/29 12:05:14;;;;;;;3.67;3.10;;;15.20;99.90;;;;;;5002952;28;20050;-68
2022/09/29 12:08:01;;;;;;;5.78;3.00;;;15.00;99.90;;;;;;5029942;28;20216;-68
2022/09/29 12:11:00;;;;;;;4.28;3.35;;;15.00;99.90;;;;;;5022308;28;20502;-68
2022/09/29 12:13:57;;;;;;;3.83;3.42;;;15.00;99.90;;;;;;5024391;28;20769;-69
2022/09/29 12:16:28;;;;;;;2.67;2.30;;;15.00;99.90;;;;;;5034518;28;20041;-69
2022/09/29 12:19:16;;;;;;;4.88;2.97;;;15.10;99.90;;;;;;5020448;28;20052;-68
2022/09/29 12:21:51;;;;;;;4.38;3.60;;;15.10;99.90;;;;;;5028581;28;20084;-68
2022/09/29 12:24:39;;;;;;;4.75;3.75;;;15.20;99.90;;;;;;5006007;28;20282;-68
2022/09/29 12:27:28;;;;;;;5.15;3.60;;;15.20;99.90;;;;;;5035701;28;20045;-68
2022/09/29 12:30:21;;;;;;;3.93;3.30;;;15.20;99.90;;;;;;5009004;28;20053;-69
2022/09/29 12:32:56;;;;;;;5.22;3.60;;;15.50;99.90;;;;;;4997588;28;20045;-68
2022/09/29 12:35:37;;;;;;;4.50;3.25;;;15.80;99.90;;;;;;4992261;28;20045;-70
2022/09/29 12:38:30;;;;;;;3.28;2.72;;;16.40;99.90;;;;;;5026182;28;20448;-69
2022/09/29 12:41:13;;;;;;;4.43;2.70;;;16.70;99.90;;;;;;5031712;28;20069;-70
2022/09/29 12:44:01;;;;;;;4.72;3.75;;;16.80;99.90;;;;;;5019395;28;20139;-70
2022/09/29 12:46:40;;;;;;;4.32;3.33;;;17.00;99.90;;;;;;5035939;28;20049;-69
2022/09/29 12:49:37;;;;;;;4.53;2.78;;;17.70;99.90;;;;;;5029863;28;20053;-69
2022/09/29 12:52:08;;;;;;;3.88;2.85;;;18.70;99.90;;;;;;5026064;28;20048;-69
2022/09/29 12:54:36;;;;;;;2.80;2.30;;;19.30;99.90;;;;;;5026817;28;20038;-69
2022/09/29 12:57:07;;;;;;;3.33;2.33;;;19.30;99.90;;;;;;5030418;28;20124;-69
2022/09/29 12:59:49;;;;;;;4.72;2.75;;;19.30;99.90;;;;;;5009769;28;20061;-69
2022/09/29 13:02:53;;;;;;;2.72;2.10;;;19.60;99.90;;;;;;5031775;28;20656;-69
2022/09/29 13:06:15;;;;;;;4.78;2.65;;;20.50;99.90;;;;;;5007802;28;20045;-69
2022/09/29 13:08:55;;;;;;;4.22;2.20;;;20.50;99.90;;;;;;4956303;28;20082;-69
2022/09/29 13:12:02;;;;;;;3.03;2.20;;;20.60;99.90;;;;;;4951120;28;20054;-69
2022/09/29 13:14:31;;;;;;;4.28;1.77;;;20.40;99.90;;;;;;4938906;28;20511;-69
2022/09/29 13:16:59;;;;;;;3.47;2.33;;;20.80;99.90;;;;;;4973768;28;20199;-69
2022/09/29 13:19:53;;;;;;;2.38;2.13;;;21.30;99.90;;;;;;4960028;28;20074;-69